createdAt,value
2022-12-11T00:41:55.308Z,35.17
2022-12-11T01:01:55.304Z,35.15
2022-12-11T01:21:55.307Z,35.14
2022-12-11T01:41:55.288Z,35.13
2022-12-11T03:01:55.289Z,35.27
2022-12-11T03:21:55.259Z,35.28
2022-12-11T03:41:55.254Z,35.31
2022-12-11T04:01:55.310Z,35.3
2022-12-11T04:21:55.269Z,35.3
2022-12-11T04:41:55.244Z,35.17
2022-12-11T05:01:55.276Z,35.28
2022-12-11T05:21:55.255Z,35.26
2022-12-11T05:41:55.248Z,35.14
2022-12-11T06:01:55.091Z,35.18
2022-12-11T06:21:55.249Z,35.17
2022-12-11T06:41:55.225Z,35.15
2022-12-11T07:01:55.256Z,35.14
2022-12-11T07:41:55.250Z,35.12
2022-12-11T08:01:55.252Z,35.1
2022-12-11T08:21:55.235Z,35.08
2022-12-11T08:41:55.208Z,35.11
2022-12-11T09:01:55.199Z,35.13
2022-12-11T09:21:55.199Z,34.94
2022-12-11T09:41:55.186Z,34.93
2022-12-11T10:01:55.219Z,34.93
2022-12-11T10:21:55.176Z,34.91
2022-12-11T10:41:55.185Z,34.9
2022-12-11T11:01:55.190Z,34.89
2022-12-11T11:21:55.145Z,34.88
2022-12-11T11:41:54.895Z,34.87
2022-12-11T12:01:55.156Z,34.86
2022-12-11T12:21:55.146Z,34.85
2022-12-11T12:41:55.147Z,34.85
2022-12-11T13:01:55.354Z,34.83
2022-12-11T13:21:55.132Z,34.83
2022-12-11T13:41:55.156Z,34.82
2022-12-11T14:01:55.148Z,34.81
2022-12-11T14:21:55.106Z,34.8
2022-12-11T14:41:55.091Z,34.8
2022-12-11T15:01:55.148Z,34.79
2022-12-11T15:21:55.088Z,34.85
2022-12-11T15:41:55.056Z,35.01
2022-12-11T16:01:55.127Z,34.85
2022-12-11T16:21:55.066Z,34.78
2022-12-11T17:01:55.124Z,34.77
2022-12-11T17:21:55.073Z,34.77
2022-12-11T17:41:55.044Z,34.76
2022-12-11T18:01:55.159Z,34.75
2022-12-11T18:21:55.040Z,34.74
2022-12-11T19:01:55.101Z,34.72
2022-12-11T19:21:55.011Z,34.71
2022-12-11T19:41:55.024Z,34.69
2022-12-11T20:01:55.036Z,34.69
2022-12-11T20:21:55.026Z,34.68
2022-12-11T20:41:54.751Z,34.67
2022-12-11T21:01:55.042Z,34.66
2022-12-11T21:21:55.011Z,34.65
2022-12-11T21:41:55.075Z,34.64
2022-12-11T22:01:55.073Z,34.63
2022-12-11T22:21:54.992Z,34.63
2022-12-11T22:41:54.991Z,34.62
2022-12-11T23:01:54.984Z,34.62
2022-12-11T23:21:54.977Z,34.61
2022-12-11T23:41:54.978Z,34.6
